Time;durP1;ratioP1;P1;durP2;ratioP2;P2;SDS_P1;SDS_P2;PMS_P1;PMS_P2;Temp;Humidity;BMP_temperature;BMP_pressure;BME280_temperature;BME280_humidity;BME280_pressure;Samples;Min_cycle;Max_cycle;Signal;HPM_P1;HPM_P2
2023/09/24 00:02:07;;;;;;;2.80;2.45;;;12.00;99.90;;;;;;4970305;28;20039;-79
2023/09/24 00:04:33;;;;;;;10.27;3.72;;;11.90;99.90;;;;;;4974046;28;20042;-79
2023/09/24 00:06:59;;;;;;;5.22;3.50;;;11.90;99.90;;;;;;4953237;28;20035;-79
2023/09/24 00:09:25;;;;;;;8.63;3.15;;;11.90;99.90;;;;;;4973554;28;20042;-79
2023/09/24 00:11:50;;;;;;;7.38;3.92;;;11.90;99.90;;;;;;4973448;28;20064;-79
2023/09/24 00:14:16;;;;;;;3.45;2.88;;;11.80;99.90;;;;;;4973004;28;20117;-78
2023/09/24 00:16:42;;;;;;;2.83;2.47;;;11.80;99.90;;;;;;4937836;28;20058;-80
2023/09/24 00:19:07;;;;;;;5.90;3.88;;;11.60;99.90;;;;;;4970311;28;20042;-79
2023/09/24 00:21:33;;;;;;;7.65;3.88;;;11.50;99.90;;;;;;4973149;28;20035;-79
2023/09/24 00:23:58;;;;;;;3.05;2.17;;;11.50;99.90;;;;;;4970564;28;20037;-79
2023/09/24 00:26:27;;;;;;;5.57;2.88;;;11.50;99.90;;;;;;4971347;28;20492;-79
2023/09/24 00:28:52;;;;;;;7.47;3.63;;;11.50;99.90;;;;;;4973828;28;20678;-79
2023/09/24 00:31:18;;;;;;;4.47;2.60;;;11.50;99.90;;;;;;4973673;28;20027;-80
2023/09/24 00:33:43;;;;;;;3.63;2.40;;;11.60;99.90;;;;;;4970274;28;20126;-79
2023/09/24 00:36:09;;;;;;;7.45;3.40;;;11.70;99.90;;;;;;4957270;28;20035;-79
2023/09/24 00:38:37;;;;;;;6.47;3.55;;;11.60;99.90;;;;;;4955714;28;20027;-79
2023/09/24 00:41:03;;;;;;;4.03;2.90;;;11.30;99.90;;;;;;4972400;28;20042;-79
2023/09/24 00:43:32;;;;;;;3.58;2.40;;;11.40;99.90;;;;;;4954911;28;20379;-78
2023/09/24 00:46:06;;;;;;;4.45;2.25;;;11.50;99.90;;;;;;4968588;28;20042;-79
2023/09/24 00:48:32;;;;;;;7.82;4.07;;;11.60;99.90;;;;;;4969393;28;20372;-79
2023/09/24 00:50:59;;;;;;;6.45;3.65;;;11.40;99.90;;;;;;4972691;28;20033;-79
2023/09/24 00:53:28;;;;;;;2.85;2.40;;;11.10;99.90;;;;;;4971785;28;20487;-79
2023/09/24 00:55:56;;;;;;;5.13;3.28;;;11.10;99.90;;;;;;4969486;28;20038;-79
2023/09/24 00:58:23;;;;;;;6.50;3.45;;;11.20;99.90;;;;;;4972478;28;20058;-80
2023/09/24 01:00:52;;;;;;;8.55;4.28;;;11.10;99.90;;;;;;4972309;28;20038;-79
2023/09/24 01:03:18;;;;;;;6.72;4.60;;;11.00;99.90;;;;;;4970032;28;20031;-79
2023/09/24 01:05:44;;;;;;;9.18;4.57;;;10.90;99.90;;;;;;4973450;28;20038;-79
2023/09/24 01:08:10;;;;;;;9.38;5.28;;;10.80;99.90;;;;;;4954045;28;20030;-79
2023/09/24 01:10:36;;;;;;;2.50;2.10;;;10.90;99.90;;;;;;4952540;28;20125;-79
2023/09/24 01:13:04;;;;;;;3.20;2.72;;;11.00;99.90;;;;;;4971593;28;20046;-78
2023/09/24 01:15:31;;;;;;;7.22;4.25;;;11.10;99.90;;;;;;4950514;28;20043;-79
2023/09/24 01:17:57;;;;;;;9.50;4.50;;;11.10;99.90;;;;;;4954002;28;20186;-79
2023/09/24 01:20:24;;;;;;;7.80;4.15;;;11.10;99.90;;;;;;4967875;28;20129;-79
2023/09/24 01:22:50;;;;;;;6.30;2.78;;;10.90;99.90;;;;;;4971054;28;20197;-79
2023/09/24 01:25:18;;;;;;;3.58;2.83;;;10.80;99.90;;;;;;4970761;28;20121;-79
2023/09/24 01:27:44;;;;;;;10.90;4.60;;;10.90;99.90;;;;;;4969122;28;20038;-79
2023/09/24 01:30:11;;;;;;;6.70;3.92;;;10.80;99.90;;;;;;4970754;28;20406;-79
2023/09/24 01:32:36;;;;;;;10.18;5.13;;;10.80;99.90;;;;;;4957379;28;20030;-79
2023/09/24 01:35:03;;;;;;;5.03;3.70;;;10.80;99.90;;;;;;4968162;28;20046;-79
2023/09/24 01:37:29;;;;;;;5.55;4.50;;;10.80;99.90;;;;;;4971373;28;20507;-79
2023/09/24 01:39:55;;;;;;;5.40;3.38;;;10.90;99.90;;;;;;4970673;28;20035;-77
2023/09/24 01:42:20;;;;;;;7.50;3.35;;;10.80;99.90;;;;;;4959092;28;20054;-78
2023/09/24 01:44:47;;;;;;;8.13;4.07;;;10.90;99.90;;;;;;4967781;28;20031;-77
2023/09/24 01:47:13;;;;;;;8.55;3.72;;;10.90;99.90;;;;;;4974751;28;20375;-78
2023/09/24 01:49:39;;;;;;;6.38;4.30;;;10.90;99.90;;;;;;4971613;28;20036;-77
2023/09/24 01:52:05;;;;;;;5.70;3.13;;;10.80;99.90;;;;;;4969943;28;20146;-78
2023/09/24 01:54:33;;;;;;;9.10;4.20;;;10.80;99.90;;;;;;4955173;28;20050;-78
2023/09/24 01:56:58;;;;;;;4.63;2.58;;;10.80;99.90;;;;;;4969818;28;20035;-78
2023/09/24 01:59:24;;;;;;;6.90;3.67;;;10.70;99.90;;;;;;4970866;28;20039;-78
2023/09/24 02:01:52;;;;;;;7.53;3.97;;;10.60;99.90;;;;;;4968070;28;20039;-78
2023/09/24 02:04:18;;;;;;;9.05;4.78;;;10.60;99.90;;;;;;4972492;28;20031;-78
2023/09/24 02:06:44;;;;;;;6.35;4.25;;;10.60;99.90;;;;;;4968829;28;20053;-78
2023/09/24 02:09:13;;;;;;;5.60;4.30;;;10.50;99.90;;;;;;4969768;28;20418;-78
2023/09/24 02:11:40;;;;;;;9.23;4.03;;;10.50;99.90;;;;;;4969397;28;20042;-78
2023/09/24 02:14:08;;;;;;;4.57;3.08;;;10.50;99.90;;;;;;4971921;28;20037;-78
2023/09/24 02:16:35;;;;;;;10.57;5.75;;;10.50;99.90;;;;;;4966401;28;20502;-80
2023/09/24 02:19:01;;;;;;;8.38;4.78;;;10.60;99.90;;;;;;4971438;28;20037;-78
2023/09/24 02:21:29;;;;;;;9.07;5.07;;;10.40;99.90;;;;;;4971676;28;20109;-77
2023/09/24 02:23:55;;;;;;;9.55;6.45;;;10.30;99.90;;;;;;4987908;28;20031;-77
2023/09/24 02:26:21;;;;;;;8.57;4.70;;;10.00;99.90;;;;;;4975437;28;20019;-78
2023/09/24 02:28:46;;;;;;;12.93;5.55;;;10.10;99.90;;;;;;4974868;28;20026;-78
2023/09/24 02:31:12;;;;;;;10.48;5.30;;;10.30;99.90;;;;;;4971567;28;20106;-77
2023/09/24 02:33:38;;;;;;;7.15;3.85;;;10.30;99.90;;;;;;4974818;28;20477;-78
2023/09/24 02:36:08;;;;;;;8.88;5.53;;;10.30;99.90;;;;;;4971574;28;20038;-77
2023/09/24 02:38:34;;;;;;;6.13;3.53;;;10.30;99.90;;;;;;4974804;28;20035;-78
2023/09/24 02:40:59;;;;;;;4.07;3.58;;;10.30;99.90;;;;;;4970642;28;20049;-77
2023/09/24 02:43:25;;;;;;;8.57;4.55;;;10.40;99.90;;;;;;4958363;28;20140;-78
2023/09/24 02:45:50;;;;;;;4.55;3.15;;;10.40;99.90;;;;;;4971314;28;20039;-78
2023/09/24 02:48:19;;;;;;;3.78;2.47;;;10.40;99.90;;;;;;4972385;28;20078;-78
2023/09/24 02:50:44;;;;;;;4.28;2.67;;;10.50;99.90;;;;;;4970218;28;20682;-78
2023/09/24 02:53:10;;;;;;;6.57;3.50;;;10.50;99.90;;;;;;4973242;28;20046;-78
2023/09/24 02:55:36;;;;;;;3.38;2.72;;;10.60;99.90;;;;;;4974499;28;20034;-79
2023/09/24 02:58:03;;;;;;;11.10;4.45;;;10.50;99.90;;;;;;4959387;28;20030;-78
2023/09/24 03:00:41;;;;;;;8.70;5.25;;;10.40;99.90;;;;;;4971631;28;20065;-78
2023/09/24 03:03:09;;;;;;;8.88;4.32;;;10.20;99.90;;;;;;4972539;28;20502;-78
2023/09/24 03:05:37;;;;;;;8.27;5.13;;;10.00;99.90;;;;;;4970248;28;20126;-79
2023/09/24 03:08:03;;;;;;;8.80;5.05;;;10.00;99.90;;;;;;4968776;28;20051;-78
2023/09/24 03:10:30;;;;;;;8.10;3.90;;;10.10;99.90;;;;;;4961706;28;20031;-78
2023/09/24 03:12:56;;;;;;;11.55;5.13;;;10.20;99.90;;;;;;4968414;28;20039;-78
2023/09/24 03:15:23;;;;;;;10.32;4.20;;;10.20;99.90;;;;;;4969902;28;20039;-78
2023/09/24 03:17:48;;;;;;;8.45;3.92;;;10.10;99.90;;;;;;4952923;28;20039;-78
2023/09/24 03:20:20;;;;;;;4.68;3.55;;;10.00;99.90;;;;;;4972072;28;20533;-77
2023/09/24 03:22:50;;;;;;;7.63;5.18;;;10.10;99.90;;;;;;4971943;28;20035;-78
2023/09/24 03:25:19;;;;;;;9.23;5.13;;;10.10;99.90;;;;;;4972366;28;20577;-78
2023/09/24 03:27:45;;;;;;;7.38;4.07;;;10.00;99.90;;;;;;4952667;28;20038;-78
2023/09/24 03:30:13;;;;;;;14.05;5.57;;;10.20;99.90;;;;;;4972056;28;20057;-78
2023/09/24 03:32:40;;;;;;;8.93;4.45;;;10.20;99.90;;;;;;4968083;28;20053;-77
2023/09/24 03:35:08;;;;;;;7.05;3.47;;;10.10;99.90;;;;;;4968303;28;20063;-78
2023/09/24 03:37:34;;;;;;;6.90;4.88;;;10.10;99.90;;;;;;4974918;28;20058;-79
2023/09/24 03:40:00;;;;;;;10.93;4.93;;;10.20;99.90;;;;;;4972489;28;20131;-78
2023/09/24 03:42:25;;;;;;;5.80;3.40;;;10.10;99.90;;;;;;4953308;28;20023;-78
2023/09/24 03:44:51;;;;;;;7.85;4.43;;;10.10;99.90;;;;;;4955551;28;20498;-79
2023/09/24 03:47:16;;;;;;;5.47;4.05;;;10.10;99.90;;;;;;4968785;28;20034;-79
2023/09/24 03:49:42;;;;;;;7.35;5.15;;;10.10;99.90;;;;;;4974959;28;20074;-78
2023/09/24 03:52:10;;;;;;;7.93;5.20;;;10.10;99.90;;;;;;4971962;28;20062;-78
2023/09/24 03:54:38;;;;;;;5.63;3.53;;;9.90;99.90;;;;;;4971681;28;20035;-78
2023/09/24 03:57:05;;;;;;;9.88;4.85;;;10.00;99.90;;;;;;4973514;28;20076;-78
2023/09/24 03:59:31;;;;;;;8.32;4.65;;;10.10;99.90;;;;;;4957175;28;20557;-78
2023/09/24 04:01:56;;;;;;;5.47;3.28;;;10.00;99.90;;;;;;4955586;28;20117;-78
2023/09/24 04:04:22;;;;;;;6.57;3.33;;;10.10;99.90;;;;;;4998733;28;20045;-78
2023/09/24 04:06:47;;;;;;;6.90;4.90;;;10.10;99.90;;;;;;4968060;28;20634;-79
2023/09/24 04:09:13;;;;;;;4.75;3.03;;;10.00;99.90;;;;;;4968543;28;20058;-78
2023/09/24 04:11:38;;;;;;;8.75;5.10;;;10.10;99.90;;;;;;4972580;28;20070;-78
2023/09/24 04:14:04;;;;;;;6.72;5.03;;;10.10;99.90;;;;;;4967905;28;20145;-78
2023/09/24 04:16:30;;;;;;;4.85;3.83;;;10.00;99.90;;;;;;4953782;28;20050;-78
2023/09/24 04:18:55;;;;;;;7.30;3.55;;;9.90;99.90;;;;;;4972395;28;20045;-78
2023/09/24 04:21:21;;;;;;;6.60;4.20;;;9.80;99.90;;;;;;4969388;28;20034;-78
2023/09/24 04:23:47;;;;;;;8.52;5.38;;;10.00;99.90;;;;;;4970011;28;20121;-78
2023/09/24 04:26:21;;;;;;;6.05;5.18;;;9.90;99.90;;;;;;4970714;28;20035;-78
2023/09/24 04:28:50;;;;;;;7.88;4.05;;;9.90;99.90;;;;;;4954351;28;20038;-78
2023/09/24 04:31:16;;;;;;;11.10;4.65;;;10.00;99.90;;;;;;4937566;28;20042;-78
2023/09/24 04:33:42;;;;;;;7.47;5.25;;;9.90;99.90;;;;;;4972113;28;20534;-77
2023/09/24 04:36:09;;;;;;;9.85;5.95;;;9.70;99.90;;;;;;4976184;28;20109;-78
2023/09/24 04:38:36;;;;;;;9.43;4.18;;;9.60;99.90;;;;;;4970212;28;20105;-78
2023/09/24 04:41:01;;;;;;;7.95;5.50;;;9.60;99.90;;;;;;4972930;28;20129;-78
2023/09/24 04:43:27;;;;;;;8.40;4.18;;;9.50;99.90;;;;;;4955399;28;20109;-78
2023/09/24 04:45:52;;;;;;;6.72;3.88;;;9.50;99.90;;;;;;4970329;28;20077;-77
2023/09/24 04:48:18;;;;;;;9.23;4.80;;;9.60;99.90;;;;;;4974551;28;20030;-77
2023/09/24 04:50:43;;;;;;;12.15;5.63;;;9.70;99.90;;;;;;4956490;28;20030;-78
2023/09/24 04:53:09;;;;;;;6.50;5.28;;;9.60;99.90;;;;;;4971051;28;20080;-78
2023/09/24 04:55:35;;;;;;;10.38;6.43;;;9.50;99.90;;;;;;4956346;28;20038;-78
2023/09/24 04:58:00;;;;;;;11.57;6.13;;;9.40;99.90;;;;;;4986850;28;20034;-78
2023/09/24 05:00:26;;;;;;;11.50;6.35;;;9.30;99.90;;;;;;4951030;28;20035;-78
2023/09/24 05:02:51;;;;;;;9.85;5.70;;;9.30;99.90;;;;;;4966315;28;20047;-78
2023/09/24 05:05:17;;;;;;;9.95;5.10;;;9.40;99.90;;;;;;4970463;28;20050;-78
2023/09/24 05:07:43;;;;;;;8.10;5.38;;;9.50;99.90;;;;;;4969709;28;20027;-78
2023/09/24 05:10:09;;;;;;;8.18;6.13;;;9.60;99.90;;;;;;4966770;28;20038;-78
2023/09/24 05:12:35;;;;;;;8.40;5.13;;;9.60;99.90;;;;;;4971008;28;20054;-78
2023/09/24 05:15:02;;;;;;;5.85;5.25;;;9.60;99.90;;;;;;4955822;28;20042;-78
2023/09/24 05:17:27;;;;;;;9.85;5.72;;;9.60;99.90;;;;;;4969959;28;20510;-78
2023/09/24 05:19:53;;;;;;;12.80;6.35;;;9.60;99.90;;;;;;4970645;28;20035;-78
2023/09/24 05:22:18;;;;;;;12.25;6.65;;;9.40;99.90;;;;;;4970955;28;20034;-78
2023/09/24 05:24:44;;;;;;;13.77;6.82;;;9.20;99.90;;;;;;4969835;28;20037;-78
2023/09/24 05:27:09;;;;;;;15.45;7.20;;;9.10;99.90;;;;;;4968811;28;21916;-79
2023/09/24 05:29:35;;;;;;;12.13;6.95;;;9.20;99.90;;;;;;4971903;28;20091;-78
2023/09/24 05:32:02;;;;;;;10.63;6.97;;;9.20;99.90;;;;;;4971972;28;20561;-80
2023/09/24 05:34:28;;;;;;;16.42;7.38;;;9.30;99.90;;;;;;4968672;28;20062;-78
2023/09/24 05:36:53;;;;;;;8.60;5.55;;;9.20;99.90;;;;;;4967922;28;20046;-78
2023/09/24 05:39:19;;;;;;;11.85;6.85;;;9.40;99.90;;;;;;4969702;28;20571;-78
2023/09/24 05:41:45;;;;;;;10.73;5.38;;;9.30;99.90;;;;;;4972586;28;20506;-78
2023/09/24 05:44:11;;;;;;;11.85;7.65;;;9.30;99.90;;;;;;4967383;28;20041;-77
2023/09/24 05:46:37;;;;;;;17.52;8.27;;;9.20;99.90;;;;;;4969099;28;20026;-78
2023/09/24 05:49:04;;;;;;;14.65;7.47;;;9.20;99.90;;;;;;4969874;28;20540;-78
2023/09/24 05:51:30;;;;;;;6.45;4.57;;;9.10;99.90;;;;;;4970449;28;20191;-79
2023/09/24 05:53:56;;;;;;;10.07;7.05;;;9.20;99.90;;;;;;4972437;28;20058;-79
2023/09/24 05:56:21;;;;;;;12.40;6.53;;;9.40;99.90;;;;;;4974376;28;20436;-79
2023/09/24 05:58:47;;;;;;;14.85;7.78;;;9.20;99.90;;;;;;4971254;28;20478;-79
2023/09/24 06:01:15;;;;;;;16.42;7.70;;;9.20;99.90;;;;;;4972583;28;20039;-79
2023/09/24 06:03:41;;;;;;;12.10;8.15;;;9.10;99.90;;;;;;4975993;28;20042;-79
2023/09/24 06:06:10;;;;;;;13.40;6.03;;;9.20;99.90;;;;;;4970217;28;20035;-79
2023/09/24 06:08:37;;;;;;;15.93;8.80;;;9.20;99.90;;;;;;4957666;28;20042;-79
2023/09/24 06:11:03;;;;;;;11.00;6.43;;;9.30;99.90;;;;;;4973637;28;20042;-79
2023/09/24 06:13:28;;;;;;;11.23;7.32;;;9.40;99.90;;;;;;4955202;28;20398;-79
2023/09/24 06:16:01;;;;;;;10.10;6.22;;;9.50;99.90;;;;;;4975148;28;20485;-79
2023/09/24 06:18:26;;;;;;;8.65;5.00;;;9.60;99.90;;;;;;4971829;28;20054;-79
2023/09/24 06:20:52;;;;;;;10.15;6.00;;;9.70;99.90;;;;;;4970464;28;20035;-79
2023/09/24 06:23:17;;;;;;;13.40;5.55;;;9.80;99.90;;;;;;4971112;28;20039;-79
2023/09/24 06:25:43;;;;;;;7.25;4.57;;;9.90;99.90;;;;;;4960267;28;20050;-79
2023/09/24 06:28:11;;;;;;;9.40;6.60;;;9.90;99.90;;;;;;4959061;28;20026;-79
2023/09/24 06:30:38;;;;;;;7.95;5.68;;;9.80;99.90;;;;;;4973152;28;20511;-80
2023/09/24 06:33:04;;;;;;;10.77;6.80;;;9.90;99.90;;;;;;4971908;28;20494;-79
2023/09/24 06:35:31;;;;;;;7.93;3.92;;;9.90;99.90;;;;;;4970903;28;20073;-79
2023/09/24 06:37:56;;;;;;;10.35;5.70;;;9.90;99.90;;;;;;4972656;28;20038;-79
2023/09/24 06:40:22;;;;;;;9.20;4.65;;;10.10;99.90;;;;;;4975230;28;20046;-80
2023/09/24 06:42:47;;;;;;;7.72;4.43;;;10.20;99.90;;;;;;4970921;28;20027;-80
2023/09/24 06:45:13;;;;;;;8.40;5.15;;;10.30;99.90;;;;;;4972303;28;20035;-79
2023/09/24 06:47:38;;;;;;;13.00;4.82;;;10.40;99.90;;;;;;4969354;28;20383;-79
2023/09/24 06:50:04;;;;;;;8.50;4.38;;;10.40;99.90;;;;;;4971133;28;20034;-79
2023/09/24 06:52:31;;;;;;;7.72;3.05;;;10.50;99.90;;;;;;4968743;28;20673;-79
2023/09/24 06:54:56;;;;;;;6.72;3.70;;;10.60;99.90;;;;;;4971346;28;20030;-79
2023/09/24 06:57:22;;;;;;;5.57;3.97;;;10.80;99.90;;;;;;4970485;28;20226;-79
2023/09/24 06:59:48;;;;;;;9.55;4.90;;;10.90;99.90;;;;;;4975110;28;20100;-79
2023/09/24 07:02:14;;;;;;;8.73;4.15;;;10.90;99.90;;;;;;4971776;28;20041;-80
2023/09/24 07:04:40;;;;;;;9.35;4.53;;;10.90;99.90;;;;;;4972641;28;20060;-78
2023/09/24 07:07:07;;;;;;;5.10;4.50;;;11.00;99.90;;;;;;4965772;28;20027;-79
2023/09/24 07:09:33;;;;;;;7.72;3.78;;;11.20;99.90;;;;;;4973106;28;20630;-79
2023/09/24 07:11:59;;;;;;;4.45;3.20;;;11.30;99.90;;;;;;4967291;28;20027;-79
2023/09/24 07:14:24;;;;;;;5.20;3.72;;;11.50;99.90;;;;;;4970745;28;20035;-79
2023/09/24 07:16:50;;;;;;;6.18;4.22;;;11.50;99.90;;;;;;4956544;28;20023;-79
2023/09/24 07:19:16;;;;;;;3.45;2.88;;;11.50;99.90;;;;;;4972419;28;20034;-79
2023/09/24 07:21:42;;;;;;;5.10;3.08;;;11.60;99.90;;;;;;4971821;28;20386;-79
2023/09/24 07:24:08;;;;;;;5.78;3.25;;;11.80;99.90;;;;;;4972817;28;20022;-79
2023/09/24 07:26:33;;;;;;;8.27;3.60;;;11.90;99.90;;;;;;4969833;28;20030;-79
2023/09/24 07:29:00;;;;;;;4.07;2.70;;;12.00;99.90;;;;;;4971960;28;20387;-79
2023/09/24 07:31:26;;;;;;;6.90;3.70;;;12.10;99.90;;;;;;4952169;28;20042;-78
2023/09/24 07:33:52;;;;;;;4.50;2.80;;;12.30;99.90;;;;;;4972234;28;20031;-80
2023/09/24 07:36:18;;;;;;;3.60;2.58;;;12.40;99.90;;;;;;4973311;28;20450;-79
2023/09/24 07:38:44;;;;;;;6.95;2.30;;;12.40;99.90;;;;;;4971006;28;20035;-79
2023/09/24 07:41:10;;;;;;;6.05;2.88;;;12.70;99.90;;;;;;4970293;28;20043;-79
2023/09/24 07:43:40;;;;;;;4.53;2.80;;;12.70;99.90;;;;;;4971390;28;20046;-79
2023/09/24 07:46:14;;;;;;;6.80;2.70;;;13.00;99.90;;;;;;4971687;28;20483;-79
2023/09/24 07:48:40;;;;;;;3.45;2.17;;;13.00;99.90;;;;;;4969394;28;20038;-78
2023/09/24 07:51:06;;;;;;;3.88;1.83;;;13.10;99.90;;;;;;4971615;28;20109;-79
2023/09/24 07:53:31;;;;;;;4.18;2.10;;;13.40;99.90;;;;;;4972865;28;20085;-79
2023/09/24 07:56:05;;;;;;;3.17;2.10;;;13.70;99.90;;;;;;4973956;28;20038;-78
2023/09/24 07:58:32;;;;;;;2.67;1.73;;;14.00;99.90;;;;;;4968561;28;20526;-79
2023/09/24 08:01:04;;;;;;;7.65;3.15;;;14.30;99.90;;;;;;4955747;28;20035;-78
2023/09/24 08:03:30;;;;;;;5.88;1.63;;;14.10;99.90;;;;;;4965989;28;20054;-79
2023/09/24 08:05:57;;;;;;;7.53;2.72;;;14.10;99.90;;;;;;4984798;28;20031;-79
2023/09/24 08:08:23;;;;;;;3.38;1.75;;;14.40;99.90;;;;;;4969089;28;20554;-78
2023/09/24 08:10:50;;;;;;;5.30;1.83;;;14.30;99.90;;;;;;4968876;28;20061;-79
2023/09/24 08:13:16;;;;;;;4.20;1.45;;;14.50;99.90;;;;;;4954978;28;20045;-79
2023/09/24 08:15:41;;;;;;;4.05;1.52;;;14.50;99.90;;;;;;4972731;28;20043;-79
2023/09/24 08:18:09;;;;;;;4.38;1.40;;;14.60;99.90;;;;;;4971368;28;20054;-79
2023/09/24 08:20:37;;;;;;;6.03;1.63;;;14.70;99.90;;;;;;4973117;28;20519;-79
2023/09/24 08:23:03;;;;;;;2.70;1.38;;;14.90;99.90;;;;;;4971963;28;20114;-79
2023/09/24 08:25:30;;;;;;;3.42;1.40;;;15.20;99.90;;;;;;4972023;28;20138;-79
2023/09/24 08:27:55;;;;;;;1.95;1.13;;;15.30;99.90;;;;;;4954879;28;20030;-79
2023/09/24 08:30:21;;;;;;;7.05;1.30;;;15.50;99.90;;;;;;4975147;28;20390;-79
2023/09/24 08:32:46;;;;;;;5.70;1.85;;;15.60;99.90;;;;;;4969376;28;20174;-79
2023/09/24 08:35:12;;;;;;;3.97;1.30;;;15.90;99.90;;;;;;4966295;28;20038;-79
2023/09/24 08:37:38;;;;;;;2.15;1.10;;;16.30;99.90;;;;;;4978654;28;20034;-79
2023/09/24 08:40:04;;;;;;;2.92;1.30;;;16.30;99.90;;;;;;4971538;28;20121;-79
2023/09/24 08:42:29;;;;;;;7.00;1.30;;;16.20;99.90;;;;;;4986500;28;20532;-79
2023/09/24 08:45:23;;;;;;;2.95;1.42;;;16.60;99.90;;;;;;4973652;28;20039;-78
2023/09/24 08:47:49;;;;;;;5.55;1.55;;;16.90;99.90;;;;;;4974835;28;20030;-79
2023/09/24 08:50:15;;;;;;;6.05;2.15;;;16.90;99.90;;;;;;4968794;28;20467;-79
2023/09/24 08:52:44;;;;;;;4.50;1.42;;;17.10;99.90;;;;;;4967148;28;20134;-79
2023/09/24 08:55:10;;;;;;;6.60;1.40;;;17.10;99.90;;;;;;4970390;28;20030;-79
2023/09/24 08:57:39;;;;;;;9.13;1.80;;;17.10;99.90;;;;;;4964773;28;20072;-79
2023/09/24 09:00:11;;;;;;;3.55;1.35;;;17.00;99.90;;;;;;4962950;28;20041;-78
2023/09/24 09:02:40;;;;;;;3.88;1.13;;;17.40;99.90;;;;;;4950333;28;20053;-79
2023/09/24 09:05:09;;;;;;;3.15;1.10;;;17.60;99.90;;;;;;4967438;28;20110;-78
2023/09/24 09:07:34;;;;;;;1.95;1.02;;;17.60;99.90;;;;;;4971099;28;20031;-79
2023/09/24 09:10:02;;;;;;;2.75;1.02;;;17.80;99.90;;;;;;4985827;28;20094;-79
2023/09/24 09:12:28;;;;;;;2.75;1.38;;;17.90;99.90;;;;;;4973971;28;20478;-79
2023/09/24 09:14:55;;;;;;;4.90;0.93;;;17.90;99.90;;;;;;4972827;28;20030;-77
2023/09/24 09:17:21;;;;;;;3.20;0.95;;;18.10;99.90;;;;;;4967149;28;20027;-78
2023/09/24 09:19:54;;;;;;;1.40;0.63;;;18.10;99.90;;;;;;4972611;28;20041;-78
2023/09/24 09:22:23;;;;;;;4.18;1.08;;;18.10;99.90;;;;;;4967076;28;20440;-78
2023/09/24 09:25:06;;;;;;;5.72;1.33;;;18.80;99.90;;;;;;4954724;28;20051;-79
2023/09/24 09:27:33;;;;;;;2.25;1.27;;;18.90;99.90;;;;;;4970797;28;20042;-78
2023/09/24 09:30:17;;;;;;;3.85;1.17;;;19.40;99.70;;;;;;4969858;28;20431;-78
2023/09/24 09:32:47;;;;;;;5.40;1.00;;;19.20;99.90;;;;;;4969397;28;20039;-78
2023/09/24 09:35:14;;;;;;;2.45;0.82;;;19.10;99.80;;;;;;4976490;28;20036;-78
2023/09/24 09:37:40;;;;;;;2.60;0.93;;;19.10;99.10;;;;;;4974092;28;20038;-78
2023/09/24 09:40:09;;;;;;;3.60;0.90;;;19.40;99.10;;;;;;4973277;28;20511;-77
2023/09/24 09:42:36;;;;;;;2.63;1.15;;;19.50;97.40;;;;;;4970755;28;20469;-78
2023/09/24 09:45:09;;;;;;;4.88;0.90;;;19.50;98.30;;;;;;4955096;28;20031;-78
2023/09/24 09:47:56;;;;;;;7.00;0.95;;;19.40;98.50;;;;;;4968925;28;20038;-77
2023/09/24 09:50:21;;;;;;;6.97;1.58;;;19.70;97.60;;;;;;4972688;28;20517;-77
2023/09/24 09:52:48;;;;;;;4.18;1.00;;;19.90;96.40;;;;;;4969624;28;20030;-78
2023/09/24 09:55:13;;;;;;;3.63;1.15;;;19.90;97.70;;;;;;4970729;28;20035;-78
2023/09/24 09:57:39;;;;;;;2.38;0.85;;;20.30;97.30;;;;;;4953654;28;20619;-78
2023/09/24 10:00:07;;;;;;;2.03;0.90;;;20.40;96.60;;;;;;4950460;28;20491;-78
2023/09/24 10:02:32;;;;;;;1.73;0.70;;;20.50;96.90;;;;;;4969372;28;20046;-78
2023/09/24 10:04:59;;;;;;;4.93;1.00;;;20.40;97.40;;;;;;4969941;28;20081;-78
2023/09/24 10:07:24;;;;;;;3.20;1.08;;;20.60;96.30;;;;;;4953286;28;20031;-78
2023/09/24 10:09:51;;;;;;;2.33;0.98;;;20.90;95.60;;;;;;4969049;28;20090;-78
2023/09/24 10:12:38;;;;;;;4.70;0.90;;;20.90;95.70;;;;;;4968289;28;20534;-78
2023/09/24 10:15:23;;;;;;;2.80;0.70;;;20.80;95.20;;;;;;4969371;28;20065;-78
2023/09/24 10:18:15;;;;;;;2.42;0.93;;;20.90;95.30;;;;;;4970725;28;20487;-79
2023/09/24 10:20:49;;;;;;;4.68;1.23;;;21.00;93.30;;;;;;4968537;28;20430;-79
2023/09/24 10:23:30;;;;;;;4.00;0.80;;;21.30;92.70;;;;;;4968129;28;20030;-80
2023/09/24 10:26:00;;;;;;;4.95;1.02;;;21.20;93.60;;;;;;4980928;28;20129;-81
2023/09/24 10:28:50;;;;;;;3.03;0.73;;;21.40;92.40;;;;;;4967957;28;20038;-79
2023/09/24 10:31:24;;;;;;;1.42;0.73;;;21.70;91.90;;;;;;4983878;28;20065;-77
2023/09/24 10:34:00;;;;;;;4.15;1.10;;;21.80;91.30;;;;;;4981476;28;20570;-79
2023/09/24 10:36:30;;;;;;;4.07;0.80;;;21.70;91.70;;;;;;4953020;28;20126;-80
2023/09/24 10:39:06;;;;;;;5.28;0.98;;;22.00;90.20;;;;;;4969264;28;20030;-80
2023/09/24 10:41:33;;;;;;;2.85;0.50;;;21.80;91.10;;;;;;4974171;28;20042;-79
2023/09/24 10:44:20;;;;;;;3.20;0.77;;;22.10;89.60;;;;;;4971245;28;20023;-80
2023/09/24 10:46:46;;;;;;;4.15;0.85;;;22.30;89.60;;;;;;4968427;28;20031;-80
2023/09/24 10:49:18;;;;;;;1.88;0.70;;;22.30;89.60;;;;;;4961225;28;20409;-80
2023/09/24 10:51:44;;;;;;;3.00;0.88;;;22.50;89.20;;;;;;4971023;28;20031;-78
2023/09/24 10:54:14;;;;;;;3.78;0.80;;;22.60;88.60;;;;;;4969586;28;20689;-78
2023/09/24 10:56:40;;;;;;;1.92;0.82;;;22.90;88.00;;;;;;4972076;28;20030;-79
2023/09/24 10:59:05;;;;;;;2.15;0.70;;;22.80;88.60;;;;;;4972850;28;20026;-79
2023/09/24 11:01:31;;;;;;;3.78;0.80;;;22.60;89.70;;;;;;4954939;28;20574;-80
2023/09/24 11:03:56;;;;;;;1.65;0.50;;;22.70;88.80;;;;;;4972492;28;20391;-80
2023/09/24 11:06:31;;;;;;;3.05;0.70;;;23.10;86.90;;;;;;4972547;28;20074;-79
2023/09/24 11:09:20;;;;;;;2.47;0.65;;;23.10;82.30;;;;;;4956406;28;20113;-80
2023/09/24 11:11:45;;;;;;;1.95;0.80;;;22.80;87.80;;;;;;4973167;28;20035;-80
2023/09/24 11:14:22;;;;;;;1.45;0.60;;;22.90;86.40;;;;;;4971053;28;20050;-80
2023/09/24 11:16:51;;;;;;;2.35;0.60;;;23.50;84.90;;;;;;4988529;28;20035;-80
2023/09/24 11:19:44;;;;;;;2.65;0.60;;;23.30;83.00;;;;;;4969731;28;20034;-77
2023/09/24 11:22:19;;;;;;;1.73;0.73;;;23.20;83.60;;;;;;4971154;28;20053;-79
2023/09/24 11:24:45;;;;;;;3.85;0.75;;;23.70;82.50;;;;;;4986008;28;20132;-78
2023/09/24 11:27:11;;;;;;;2.90;0.90;;;23.50;85.00;;;;;;4969514;28;20078;-78
2023/09/24 11:29:36;;;;;;;4.32;0.85;;;23.50;81.60;;;;;;4956144;28;20510;-78
2023/09/24 11:32:02;;;;;;;2.30;0.82;;;23.50;82.70;;;;;;4956590;28;20061;-78
2023/09/24 11:34:29;;;;;;;3.53;1.23;;;23.60;81.40;;;;;;4971409;28;20086;-79
2023/09/24 11:36:55;;;;;;;1.02;0.68;;;24.20;79.40;;;;;;4970953;28;20052;-79
2023/09/24 11:39:21;;;;;;;4.72;1.05;;;24.00;82.60;;;;;;4967760;28;20046;-79
2023/09/24 11:41:47;;;;;;;2.33;0.63;;;23.80;83.60;;;;;;4970745;28;20580;-78
2023/09/24 11:44:13;;;;;;;5.32;0.93;;;24.30;82.10;;;;;;4966218;28;20031;-78
2023/09/24 11:46:40;;;;;;;4.30;0.80;;;24.20;82.70;;;;;;4970354;28;20034;-78
2023/09/24 11:49:06;;;;;;;0.80;0.70;;;23.90;84.90;;;;;;4969166;28;20030;-79
2023/09/24 11:51:32;;;;;;;3.38;1.17;;;24.10;81.80;;;;;;4952792;28;20047;-78
2023/09/24 11:53:57;;;;;;;3.38;1.45;;;24.60;79.00;;;;;;4970680;28;20487;-78
2023/09/24 11:56:23;;;;;;;2.42;1.00;;;24.30;78.40;;;;;;4942845;28;20073;-78
2023/09/24 11:58:49;;;;;;;6.90;0.73;;;24.10;81.90;;;;;;4974772;28;20026;-78
2023/09/24 12:01:14;;;;;;;3.70;1.05;;;24.40;78.40;;;;;;4970507;28;20542;-78
2023/09/24 12:03:42;;;;;;;2.60;0.90;;;24.80;80.50;;;;;;4970703;28;20458;-78
2023/09/24 12:06:07;;;;;;;3.33;0.95;;;24.80;79.00;;;;;;4970116;28;20063;-78
2023/09/24 12:08:34;;;;;;;1.58;0.60;;;24.60;77.00;;;;;;4966871;28;20047;-78
2023/09/24 12:11:00;;;;;;;1.08;0.70;;;24.60;81.40;;;;;;4972419;28;20034;-79
2023/09/24 12:13:25;;;;;;;2.88;1.63;;;24.60;79.50;;;;;;4977953;28;20042;-78
2023/09/24 12:15:51;;;;;;;2.60;0.85;;;24.90;79.10;;;;;;4976231;28;20470;-79
2023/09/24 12:18:16;;;;;;;1.77;0.63;;;24.90;77.10;;;;;;4969368;28;20034;-78
2023/09/24 12:20:43;;;;;;;3.55;1.33;;;24.90;80.80;;;;;;4969264;28;20132;-79
2023/09/24 12:23:09;;;;;;;3.67;1.00;;;24.70;80.80;;;;;;4970583;28;20031;-79
2023/09/24 12:25:35;;;;;;;1.67;0.95;;;24.70;80.10;;;;;;4972143;28;20049;-79
2023/09/24 12:28:07;;;;;;;1.90;0.73;;;25.20;77.00;;;;;;4971533;28;20186;-79
2023/09/24 12:30:33;;;;;;;1.65;0.73;;;25.20;77.00;;;;;;4970006;28;20042;-78
2023/09/24 12:32:59;;;;;;;3.83;1.00;;;25.50;77.80;;;;;;4969439;28;20436;-79
2023/09/24 12:35:25;;;;;;;3.15;0.98;;;25.80;77.00;;;;;;4971980;28;20034;-79
2023/09/24 12:37:54;;;;;;;1.80;0.82;;;25.70;75.90;;;;;;4967534;28;20121;-79
2023/09/24 12:40:20;;;;;;;1.35;1.02;;;25.50;77.60;;;;;;4970570;28;20089;-79
2023/09/24 12:42:47;;;;;;;1.70;0.70;;;25.70;75.30;;;;;;4968523;28;20065;-79
2023/09/24 12:45:13;;;;;;;3.60;0.73;;;25.80;75.30;;;;;;4971377;28;20161;-79
2023/09/24 12:47:40;;;;;;;2.92;0.98;;;25.60;76.10;;;;;;4970817;28;20151;-79
2023/09/24 12:50:07;;;;;;;1.95;0.68;;;25.80;75.10;;;;;;4969712;28;20045;-80